sensor_id;sensor_type;location;lat;lon;timestamp;pressure;altitude;pressure_sealevel;temperature;humidity
72794;BME280;63436;26.334;50.194;2022-10-16T00:02:25;101259.94;;;30.04;30.72
72794;BME280;63436;26.334;50.194;2022-10-16T00:04:51;101257.78;;;30.21;30.53
72794;BME280;63436;26.334;50.194;2022-10-16T00:07:20;101259.69;;;30.62;29.86
72794;BME280;63436;26.334;50.194;2022-10-16T00:09:40;101261.36;;;31.62;29.39
72794;BME280;63436;26.334;50.194;2022-10-16T00:12:06;101267.55;;;31.31;29.68
72794;BME280;63436;26.334;50.194;2022-10-16T00:14:35;101272.01;;;31.29;29.30
72794;BME280;63436;26.334;50.194;2022-10-16T00:16:57;101278.99;;;30.78;29.82
72794;BME280;63436;26.334;50.194;2022-10-16T00:19:27;101283.97;;;30.35;30.67
72794;BME280;63436;26.334;50.194;2022-10-16T00:21:47;101284.30;;;30.20;31.21
72794;BME280;63436;26.334;50.194;2022-10-16T00:24:13;101280.85;;;29.63;31.87
72794;BME280;63436;26.334;50.194;2022-10-16T00:26:39;101281.36;;;30.09;31.69
72794;BME280;63436;26.334;50.194;2022-10-16T00:29:05;101283.89;;;29.78;31.50
72794;BME280;63436;26.334;50.194;2022-10-16T00:31:29;101285.10;;;30.13;31.12
72794;BME280;63436;26.334;50.194;2022-10-16T00:33:55;101286.34;;;30.33;31.37
72794;BME280;63436;26.334;50.194;2022-10-16T00:36:22;101286.86;;;30.71;30.95
72794;BME280;63436;26.334;50.194;2022-10-16T00:38:46;101288.48;;;30.53;30.87
72794;BME280;63436;26.334;50.194;2022-10-16T00:41:14;101292.92;;;31.19;29.96
72794;BME280;63436;26.334;50.194;2022-10-16T00:43:39;101298.28;;;31.23;29.89
72794;BME280;63436;26.334;50.194;2022-10-16T00:46:03;101302.09;;;30.02;31.15
72794;BME280;63436;26.334;50.194;2022-10-16T00:48:28;101300.76;;;29.76;31.89
72794;BME280;63436;26.334;50.194;2022-10-16T00:50:52;101303.36;;;29.95;32.06
72794;BME280;63436;26.334;50.194;2022-10-16T00:53:18;101302.71;;;29.93;32.36
72794;BME280;63436;26.334;50.194;2022-10-16T00:55:43;101301.31;;;29.88;32.30
72794;BME280;63436;26.334;50.194;2022-10-16T00:58:09;101301.40;;;30.44;32.08
72794;BME280;63436;26.334;50.194;2022-10-16T01:00:34;101299.39;;;30.76;31.93
72794;BME280;63436;26.334;50.194;2022-10-16T01:03:01;101297.50;;;30.54;31.79
72794;BME280;63436;26.334;50.194;2022-10-16T01:05:30;101297.34;;;31.05;31.43
72794;BME280;63436;26.334;50.194;2022-10-16T01:07:57;101301.48;;;30.79;32.10
72794;BME280;63436;26.334;50.194;2022-10-16T01:10:24;101305.24;;;29.91;33.19
72794;BME280;63436;26.334;50.194;2022-10-16T01:12:46;101310.00;;;30.01;33.44
72794;BME280;63436;26.334;50.194;2022-10-16T01:15:11;101316.89;;;30.47;31.91
72794;BME280;63436;26.334;50.194;2022-10-16T01:17:37;101317.37;;;30.87;32.00
72794;BME280;63436;26.334;50.194;2022-10-16T01:20:06;101318.09;;;30.97;31.52
72794;BME280;63436;26.334;50.194;2022-10-16T01:22:26;101316.33;;;30.56;32.54
72794;BME280;63436;26.334;50.194;2022-10-16T01:24:50;101313.79;;;29.75;33.77
72794;BME280;63436;26.334;50.194;2022-10-16T01:27:15;101317.21;;;29.89;33.64
72794;BME280;63436;26.334;50.194;2022-10-16T01:29:45;101319.42;;;30.01;33.15
72794;BME280;63436;26.334;50.194;2022-10-16T01:32:11;101324.04;;;29.84;33.82
72794;BME280;63436;26.334;50.194;2022-10-16T01:34:33;101327.19;;;29.28;34.13
72794;BME280;63436;26.334;50.194;2022-10-16T01:37:00;101329.14;;;29.96;33.31
72794;BME280;63436;26.334;50.194;2022-10-16T01:39:24;101333.13;;;29.77;33.88
72794;BME280;63436;26.334;50.194;2022-10-16T01:41:51;101333.05;;;29.50;34.23
72794;BME280;63436;26.334;50.194;2022-10-16T01:44:15;101334.48;;;29.32;33.85
72794;BME280;63436;26.334;50.194;2022-10-16T01:46:41;101336.60;;;29.77;33.90
72794;BME280;63436;26.334;50.194;2022-10-16T01:49:03;101342.99;;;29.87;33.72
72794;BME280;63436;26.334;50.194;2022-10-16T01:51:29;101348.55;;;30.42;32.83
72794;BME280;63436;26.334;50.194;2022-10-16T01:53:56;101353.62;;;30.35;33.19
72794;BME280;63436;26.334;50.194;2022-10-16T01:56:21;101352.38;;;30.40;32.77
72794;BME280;63436;26.334;50.194;2022-10-16T01:58:49;101352.17;;;29.51;33.78
72794;BME280;63436;26.334;50.194;2022-10-16T02:01:11;101351.92;;;29.66;33.80
72794;BME280;63436;26.334;50.194;2022-10-16T02:03:38;101350.43;;;29.34;34.05
72794;BME280;63436;26.334;50.194;2022-10-16T02:06:01;101351.29;;;29.81;33.34
72794;BME280;63436;26.334;50.194;2022-10-16T02:08:29;101354.55;;;29.75;34.06
72794;BME280;63436;26.334;50.194;2022-10-16T02:10:53;101355.26;;;29.32;34.77
72794;BME280;63436;26.334;50.194;2022-10-16T02:13:23;101363.13;;;29.21;34.65
72794;BME280;63436;26.334;50.194;2022-10-16T02:15:43;101364.93;;;29.37;34.96
72794;BME280;63436;26.334;50.194;2022-10-16T02:18:09;101371.02;;;30.06;32.96
72794;BME280;63436;26.334;50.194;2022-10-16T02:20:38;101372.54;;;30.14;33.00
72794;BME280;63436;26.334;50.194;2022-10-16T02:23:01;101371.27;;;30.44;32.54
72794;BME280;63436;26.334;50.194;2022-10-16T02:25:31;101367.82;;;30.41;32.92
72794;BME280;63436;26.334;50.194;2022-10-16T02:27:54;101363.73;;;29.48;34.39
72794;BME280;63436;26.334;50.194;2022-10-16T02:30:20;101363.05;;;29.59;34.22
72794;BME280;63436;26.334;50.194;2022-10-16T02:32:43;101360.83;;;29.25;34.72
72794;BME280;63436;26.334;50.194;2022-10-16T02:35:08;101366.42;;;29.17;34.77
72794;BME280;63436;26.334;50.194;2022-10-16T02:37:33;101366.58;;;29.46;34.66
72794;BME280;63436;26.334;50.194;2022-10-16T02:39:58;101372.43;;;30.04;33.74
72794;BME280;63436;26.334;50.194;2022-10-16T02:42:29;101375.19;;;30.08;33.61
72794;BME280;63436;26.334;50.194;2022-10-16T02:44:49;101375.25;;;29.49;34.45
72794;BME280;63436;26.334;50.194;2022-10-16T02:47:15;101378.84;;;28.94;35.77
72794;BME280;63436;26.334;50.194;2022-10-16T02:49:40;101379.78;;;29.26;35.89
72794;BME280;63436;26.334;50.194;2022-10-16T02:52:06;101385.19;;;28.80;36.24
72794;BME280;63436;26.334;50.194;2022-10-16T02:54:32;101386.23;;;29.90;34.53
72794;BME280;63436;26.334;50.194;2022-10-16T02:56:57;101394.85;;;29.71;34.82
72794;BME280;63436;26.334;50.194;2022-10-16T02:59:22;101403.33;;;29.21;35.38
72794;BME280;63436;26.334;50.194;2022-10-16T03:01:47;101408.21;;;27.59;38.05
72794;BME280;63436;26.334;50.194;2022-10-16T03:04:12;101405.52;;;29.30;35.40
72794;BME280;63436;26.334;50.194;2022-10-16T03:06:38;101404.28;;;29.76;34.80
72794;BME280;63436;26.334;50.194;2022-10-16T03:09:03;101408.61;;;30.65;34.51
72794;BME280;63436;26.334;50.194;2022-10-16T03:11:29;101409.20;;;30.23;34.29
72794;BME280;63436;26.334;50.194;2022-10-16T03:13:54;101409.43;;;30.54;33.94
72794;BME280;63436;26.334;50.194;2022-10-16T03:16:20;101409.21;;;30.41;35.08
72794;BME280;63436;26.334;50.194;2022-10-16T03:18:48;101411.67;;;30.48;34.77
72794;BME280;63436;26.334;50.194;2022-10-16T03:21:11;101411.64;;;29.33;36.45
72794;BME280;63436;26.334;50.194;2022-10-16T03:23:36;101412.65;;;29.41;36.71
72794;BME280;63436;26.334;50.194;2022-10-16T03:26:01;101413.17;;;29.15;37.37
72794;BME280;63436;26.334;50.194;2022-10-16T03:28:27;101414.27;;;28.70;38.11
72794;BME280;63436;26.334;50.194;2022-10-16T03:30:52;101416.16;;;29.13;37.77
72794;BME280;63436;26.334;50.194;2022-10-16T03:33:18;101420.89;;;29.85;37.12
72794;BME280;63436;26.334;50.194;2022-10-16T03:35:51;101427.06;;;30.14;36.91
72794;BME280;63436;26.334;50.194;2022-10-16T03:38:09;101432.74;;;29.29;37.27
72794;BME280;63436;26.334;50.194;2022-10-16T03:40:34;101433.00;;;30.03;37.17
72794;BME280;63436;26.334;50.194;2022-10-16T03:43:00;101437.51;;;30.27;36.60
72794;BME280;63436;26.334;50.194;2022-10-16T03:45:25;101441.47;;;30.65;36.83
72794;BME280;63436;26.334;50.194;2022-10-16T03:47:51;101447.11;;;31.13;35.88
72794;BME280;63436;26.334;50.194;2022-10-16T03:50:16;101449.21;;;31.33;35.91
72794;BME280;63436;26.334;50.194;2022-10-16T03:52:42;101451.93;;;31.22;35.08
72794;BME280;63436;26.334;50.194;2022-10-16T03:55:08;101451.82;;;31.10;36.35
72794;BME280;63436;26.334;50.194;2022-10-16T03:57:32;101452.61;;;30.20;37.65
72794;BME280;63436;26.334;50.194;2022-10-16T03:59:59;101450.87;;;29.66;38.67
72794;BME280;63436;26.334;50.194;2022-10-16T04:02:23;101454.55;;;30.13;38.10
72794;BME280;63436;26.334;50.194;2022-10-16T04:04:48;101461.37;;;31.04;37.10
72794;BME280;63436;26.334;50.194;2022-10-16T04:07:14;101462.20;;;31.82;34.70
72794;BME280;63436;26.334;50.194;2022-10-16T04:09:39;101466.32;;;31.10;37.85
72794;BME280;63436;26.334;50.194;2022-10-16T04:12:04;101470.44;;;30.47;38.40
72794;BME280;63436;26.334;50.194;2022-10-16T04:14:29;101475.22;;;30.74;38.09
72794;BME280;63436;26.334;50.194;2022-10-16T04:16:55;101480.80;;;31.94;36.18
72794;BME280;63436;26.334;50.194;2022-10-16T04:19:21;101477.85;;;30.54;38.40
72794;BME280;63436;26.334;50.194;2022-10-16T04:21:46;101480.93;;;30.30;38.34
72794;BME280;63436;26.334;50.194;2022-10-16T04:24:12;101483.47;;;32.12;34.82
72794;BME280;63436;26.334;50.194;2022-10-16T04:26:37;101485.89;;;32.11;34.78
72794;BME280;63436;26.334;50.194;2022-10-16T04:29:02;101487.21;;;31.69;35.36
72794;BME280;63436;26.334;50.194;2022-10-16T04:31:27;101490.88;;;32.00;34.18
72794;BME280;63436;26.334;50.194;2022-10-16T04:33:53;101489.97;;;29.75;36.74
72794;BME280;63436;26.334;50.194;2022-10-16T04:36:19;101494.61;;;31.41;33.90
72794;BME280;63436;26.334;50.194;2022-10-16T04:38:44;101497.54;;;32.20;32.36
72794;BME280;63436;26.334;50.194;2022-10-16T04:41:09;101497.02;;;33.38;30.54
72794;BME280;63436;26.334;50.194;2022-10-16T04:43:34;101499.07;;;33.40;29.83
72794;BME280;63436;26.334;50.194;2022-10-16T04:45:59;101501.63;;;32.87;29.99
72794;BME280;63436;26.334;50.194;2022-10-16T04:48:25;101504.08;;;32.96;30.13
72794;BME280;63436;26.334;50.194;2022-10-16T04:50:51;101512.40;;;31.17;31.68
72794;BME280;63436;26.334;50.194;2022-10-16T04:53:16;101513.08;;;32.21;29.71
72794;BME280;63436;26.334;50.194;2022-10-16T04:55:42;101509.98;;;32.98;28.10
72794;BME280;63436;26.334;50.194;2022-10-16T04:58:08;101515.38;;;32.88;29.04
72794;BME280;63436;26.334;50.194;2022-10-16T05:00:34;101521.68;;;32.66;29.30
72794;BME280;63436;26.334;50.194;2022-10-16T05:02:58;101518.18;;;33.15;26.93
72794;BME280;63436;26.334;50.194;2022-10-16T05:05:24;101522.89;;;33.35;26.77
72794;BME280;63436;26.334;50.194;2022-10-16T05:07:50;101528.33;;;33.14;26.90
72794;BME280;63436;26.334;50.194;2022-10-16T05:10:15;101529.07;;;33.51;26.94
72794;BME280;63436;26.334;50.194;2022-10-16T05:12:41;101531.70;;;33.11;27.58
72794;BME280;63436;26.334;50.194;2022-10-16T05:15:07;101533.17;;;33.82;26.37
72794;BME280;63436;26.334;50.194;2022-10-16T05:17:32;101540.04;;;33.85;26.97
72794;BME280;63436;26.334;50.194;2022-10-16T05:19:58;101542.96;;;34.48;26.23
72794;BME280;63436;26.334;50.194;2022-10-16T05:22:23;101542.28;;;34.13;26.18
72794;BME280;63436;26.334;50.194;2022-10-16T05:24:48;101546.88;;;32.60;28.27
72794;BME280;63436;26.334;50.194;2022-10-16T05:27:15;101541.27;;;33.92;25.57
72794;BME280;63436;26.334;50.194;2022-10-16T05:29:39;101538.68;;;34.03;25.12
72794;BME280;63436;26.334;50.194;2022-10-16T05:32:04;101533.39;;;34.28;25.22
72794;BME280;63436;26.334;50.194;2022-10-16T05:34:30;101531.08;;;33.95;25.91
72794;BME280;63436;26.334;50.194;2022-10-16T05:36:55;101534.43;;;31.73;28.50
72794;BME280;63436;26.334;50.194;2022-10-16T05:39:21;101529.52;;;34.06;26.53
72794;BME280;63436;26.334;50.194;2022-10-16T05:42:01;101531.97;;;33.98;27.27
72794;BME280;63436;26.334;50.194;2022-10-16T05:44:13;101530.32;;;33.87;26.33
72794;BME280;63436;26.334;50.194;2022-10-16T05:46:38;101530.09;;;34.37;25.30
72794;BME280;63436;26.334;50.194;2022-10-16T05:49:04;101529.19;;;33.01;26.88
72794;BME280;63436;26.334;50.194;2022-10-16T05:51:29;101529.73;;;33.78;26.05
72794;BME280;63436;26.334;50.194;2022-10-16T05:53:54;101530.42;;;33.27;27.28
72794;BME280;63436;26.334;50.194;2022-10-16T05:56:20;101532.61;;;33.73;27.19
72794;BME280;63436;26.334;50.194;2022-10-16T05:58:46;101535.79;;;33.83;28.30
72794;BME280;63436;26.334;50.194;2022-10-16T06:01:13;101534.64;;;32.97;30.05
72794;BME280;63436;26.334;50.194;2022-10-16T06:03:36;101532.84;;;33.91;28.70
72794;BME280;63436;26.334;50.194;2022-10-16T06:06:08;101534.45;;;33.91;28.29
72794;BME280;63436;26.334;50.194;2022-10-16T06:08:27;101533.92;;;33.88;29.08
72794;BME280;63436;26.334;50.194;2022-10-16T06:11:02;101532.00;;;33.64;28.79
72794;BME280;63436;26.334;50.194;2022-10-16T06:13:18;101531.18;;;33.27;30.10
72794;BME280;63436;26.334;50.194;2022-10-16T06:15:48;101534.08;;;34.05;28.43
72794;BME280;63436;26.334;50.194;2022-10-16T06:18:25;101531.65;;;33.89;27.95
72794;BME280;63436;26.334;50.194;2022-10-16T06:20:46;101529.53;;;33.67;28.00
72794;BME280;63436;26.334;50.194;2022-10-16T06:23:00;101531.00;;;33.63;28.65
72794;BME280;63436;26.334;50.194;2022-10-16T06:25:29;101529.78;;;34.22;28.51
72794;BME280;63436;26.334;50.194;2022-10-16T06:27:51;101525.38;;;33.21;29.90
72794;BME280;63436;26.334;50.194;2022-10-16T06:30:17;101525.39;;;33.38;29.97
72794;BME280;63436;26.334;50.194;2022-10-16T06:32:44;101524.82;;;34.51;27.15
72794;BME280;63436;26.334;50.194;2022-10-16T06:35:09;101527.72;;;34.10;26.79
72794;BME280;63436;26.334;50.194;2022-10-16T06:37:34;101526.79;;;34.11;26.16
72794;BME280;63436;26.334;50.194;2022-10-16T06:40:00;101523.74;;;34.77;26.27
72794;BME280;63436;26.334;50.194;2022-10-16T06:42:25;101526.55;;;34.38;26.91
72794;BME280;63436;26.334;50.194;2022-10-16T06:44:51;101525.38;;;33.64;27.05
72794;BME280;63436;26.334;50.194;2022-10-16T06:47:17;101523.70;;;34.12;25.63
72794;BME280;63436;26.334;50.194;2022-10-16T06:49:48;101522.62;;;33.68;26.68
72794;BME280;63436;26.334;50.194;2022-10-16T06:52:08;101523.90;;;34.08;26.67
72794;BME280;63436;26.334;50.194;2022-10-16T06:54:34;101523.46;;;33.59;27.34
72794;BME280;63436;26.334;50.194;2022-10-16T06:56:59;101522.22;;;34.32;26.68
72794;BME280;63436;26.334;50.194;2022-10-16T06:59:24;101515.56;;;34.93;26.26
72794;BME280;63436;26.334;50.194;2022-10-16T07:01:50;101508.48;;;35.27;26.39
72794;BME280;63436;26.334;50.194;2022-10-16T07:04:16;101511.10;;;34.62;26.90
72794;BME280;63436;26.334;50.194;2022-10-16T07:06:46;101505.97;;;34.63;27.63
72794;BME280;63436;26.334;50.194;2022-10-16T07:11:32;101501.28;;;35.65;25.83
72794;BME280;63436;26.334;50.194;2022-10-16T07:13:56;101500.40;;;35.47;27.63
72794;BME280;63436;26.334;50.194;2022-10-16T07:16:24;101497.05;;;34.30;29.20
72794;BME280;63436;26.334;50.194;2022-10-16T07:18:49;101496.12;;;32.53;30.92
72794;BME280;63436;26.334;50.194;2022-10-16T07:21:15;101492.57;;;34.18;29.06
72794;BME280;63436;26.334;50.194;2022-10-16T07:23:40;101489.26;;;35.27;27.80
72794;BME280;63436;26.334;50.194;2022-10-16T07:26:05;101488.51;;;33.76;29.71
72794;BME280;63436;26.334;50.194;2022-10-16T07:28:30;101482.51;;;34.62;28.12
72794;BME280;63436;26.334;50.194;2022-10-16T07:31:00;101477.15;;;34.63;27.25
72794;BME280;63436;26.334;50.194;2022-10-16T07:33:21;101476.95;;;33.46;28.08
72794;BME280;63436;26.334;50.194;2022-10-16T07:35:52;101469.38;;;34.93;26.82
72794;BME280;63436;26.334;50.194;2022-10-16T07:38:11;101467.95;;;33.87;27.00
72794;BME280;63436;26.334;50.194;2022-10-16T07:40:42;101461.39;;;35.09;26.23
72794;BME280;63436;26.334;50.194;2022-10-16T07:43:03;101459.34;;;32.72;28.83
72794;BME280;63436;26.334;50.194;2022-10-16T07:45:28;101456.12;;;35.18;26.03
72794;BME280;63436;26.334;50.194;2022-10-16T07:47:55;101451.67;;;33.49;27.11
72794;BME280;63436;26.334;50.194;2022-10-16T07:50:19;101447.59;;;33.47;25.24
72794;BME280;63436;26.334;50.194;2022-10-16T07:52:55;101450.31;;;32.97;24.93
72794;BME280;63436;26.334;50.194;2022-10-16T07:55:10;101447.98;;;33.74;24.12
72794;BME280;63436;26.334;50.194;2022-10-16T07:57:35;101439.14;;;34.28;23.89
72794;BME280;63436;26.334;50.194;2022-10-16T08:00:07;101437.77;;;35.25;23.29
72794;BME280;63436;26.334;50.194;2022-10-16T08:02:26;101430.28;;;34.55;20.99
72794;BME280;63436;26.334;50.194;2022-10-16T08:05:06;101428.31;;;36.00;12.83
72794;BME280;63436;26.334;50.194;2022-10-16T08:07:18;101425.98;;;35.42;14.01
72794;BME280;63436;26.334;50.194;2022-10-16T08:09:43;101417.73;;;35.19;12.61
72794;BME280;63436;26.334;50.194;2022-10-16T08:12:09;101417.68;;;35.55;10.65
72794;BME280;63436;26.334;50.194;2022-10-16T08:14:34;101416.73;;;35.35;16.79
72794;BME280;63436;26.334;50.194;2022-10-16T08:17:00;101411.42;;;34.59;18.21
72794;BME280;63436;26.334;50.194;2022-10-16T08:19:26;101407.98;;;36.03;14.61
72794;BME280;63436;26.334;50.194;2022-10-16T08:21:52;101409.96;;;35.96;12.03
72794;BME280;63436;26.334;50.194;2022-10-16T08:24:17;101400.85;;;36.47;10.44
72794;BME280;63436;26.334;50.194;2022-10-16T08:26:43;101403.56;;;35.50;11.84
72794;BME280;63436;26.334;50.194;2022-10-16T08:29:09;101396.57;;;34.89;12.38
72794;BME280;63436;26.334;50.194;2022-10-16T08:31:34;101392.78;;;36.27;13.73
72794;BME280;63436;26.334;50.194;2022-10-16T08:34:00;101386.12;;;34.35;12.83
72794;BME280;63436;26.334;50.194;2022-10-16T08:36:25;101383.20;;;35.94;13.52
72794;BME280;63436;26.334;50.194;2022-10-16T08:38:51;101377.25;;;36.59;13.27
72794;BME280;63436;26.334;50.194;2022-10-16T08:41:25;101371.38;;;36.40;14.25
72794;BME280;63436;26.334;50.194;2022-10-16T08:44:01;101367.89;;;36.70;15.35
72794;BME280;63436;26.334;50.194;2022-10-16T08:46:21;101365.59;;;36.78;15.04
72794;BME280;63436;26.334;50.194;2022-10-16T08:48:39;101357.32;;;36.37;16.21
72794;BME280;63436;26.334;50.194;2022-10-16T08:51:01;101355.52;;;36.34;18.84
72794;BME280;63436;26.334;50.194;2022-10-16T08:53:27;101355.04;;;36.53;17.01
72794;BME280;63436;26.334;50.194;2022-10-16T08:55:51;101357.02;;;35.43;19.08
72794;BME280;63436;26.334;50.194;2022-10-16T08:58:16;101351.89;;;35.02;19.98
72794;BME280;63436;26.334;50.194;2022-10-16T09:00:40;101347.65;;;35.92;19.76
72794;BME280;63436;26.334;50.194;2022-10-16T09:03:12;101344.48;;;35.40;19.85
72794;BME280;63436;26.334;50.194;2022-10-16T09:05:43;101340.20;;;34.61;19.58
72794;BME280;63436;26.334;50.194;2022-10-16T09:08:03;101332.57;;;36.42;17.82
72794;BME280;63436;26.334;50.194;2022-10-16T09:10:31;101329.65;;;36.84;17.73
72794;BME280;63436;26.334;50.194;2022-10-16T09:12:52;101323.14;;;35.87;18.75
72794;BME280;63436;26.334;50.194;2022-10-16T09:15:20;101318.68;;;36.76;18.25
72794;BME280;63436;26.334;50.194;2022-10-16T09:17:43;101314.86;;;36.89;18.79
72794;BME280;63436;26.334;50.194;2022-10-16T09:20:13;101311.74;;;36.94;15.98
72794;BME280;63436;26.334;50.194;2022-10-16T09:22:27;101308.34;;;36.48;16.86
72794;BME280;63436;26.334;50.194;2022-10-16T09:24:52;101308.45;;;36.32;18.23
72794;BME280;63436;26.334;50.194;2022-10-16T09:27:18;101304.29;;;35.54;19.47
72794;BME280;63436;26.334;50.194;2022-10-16T09:29:43;101305.27;;;33.93;21.19
72794;BME280;63436;26.334;50.194;2022-10-16T09:32:12;101303.97;;;34.66;20.34
72794;BME280;63436;26.334;50.194;2022-10-16T09:34:36;101302.53;;;35.35;20.26
72794;BME280;63436;26.334;50.194;2022-10-16T09:37:04;101297.75;;;36.85;18.78
72794;BME280;63436;26.334;50.194;2022-10-16T09:39:24;101297.37;;;37.05;18.42
72794;BME280;63436;26.334;50.194;2022-10-16T09:41:50;101291.81;;;35.74;18.77
72794;BME280;63436;26.334;50.194;2022-10-16T09:44:21;101293.12;;;35.42;19.03
72794;BME280;63436;26.334;50.194;2022-10-16T09:46:42;101289.52;;;36.13;18.61
72794;BME280;63436;26.334;50.194;2022-10-16T09:51:34;101286.46;;;35.64;18.92
72794;BME280;63436;26.334;50.194;2022-10-16T09:54:00;101288.63;;;34.79;19.20
72794;BME280;63436;26.334;50.194;2022-10-16T09:56:26;101282.46;;;36.77;17.69
72794;BME280;63436;26.334;50.194;2022-10-16T09:58:50;101279.98;;;36.17;18.09
72794;BME280;63436;26.334;50.194;2022-10-16T10:01:15;101276.45;;;36.79;17.38
72794;BME280;63436;26.334;50.194;2022-10-16T10:03:41;101274.96;;;36.60;17.18
72794;BME280;63436;26.334;50.194;2022-10-16T10:06:17;101270.46;;;37.20;16.57
72794;BME280;63436;26.334;50.194;2022-10-16T10:08:31;101271.42;;;36.60;16.66
72794;BME280;63436;26.334;50.194;2022-10-16T10:10:57;101271.21;;;36.11;17.39
72794;BME280;63436;26.334;50.194;2022-10-16T10:13:24;101270.03;;;36.74;16.34
72794;BME280;63436;26.334;50.194;2022-10-16T10:15:48;101265.99;;;37.12;15.57
72794;BME280;63436;26.334;50.194;2022-10-16T10:18:18;101267.54;;;36.70;15.71
72794;BME280;63436;26.334;50.194;2022-10-16T10:20:39;101263.34;;;37.64;15.09
72794;BME280;63436;26.334;50.194;2022-10-16T10:25:40;101261.14;;;36.71;14.67
72794;BME280;63436;26.334;50.194;2022-10-16T10:28:18;101254.06;;;37.49;13.85
72794;BME280;63436;26.334;50.194;2022-10-16T10:30:25;101252.48;;;36.05;15.15
72794;BME280;63436;26.334;50.194;2022-10-16T10:32:55;101256.62;;;33.57;17.84
72794;BME280;63436;26.334;50.194;2022-10-16T10:35:16;101251.64;;;35.92;16.80
72794;BME280;63436;26.334;50.194;2022-10-16T10:37:53;101252.02;;;33.79;17.91
72794;BME280;63436;26.334;50.194;2022-10-16T10:40:13;101249.91;;;34.16;18.02
72794;BME280;63436;26.334;50.194;2022-10-16T10:42:32;101248.41;;;35.40;17.34
72794;BME280;63436;26.334;50.194;2022-10-16T10:45:07;101248.83;;;35.28;17.58
72794;BME280;63436;26.334;50.194;2022-10-16T10:47:27;101239.85;;;35.91;15.87
72794;BME280;63436;26.334;50.194;2022-10-16T10:49:54;101241.70;;;35.46;16.87
72794;BME280;63436;26.334;50.194;2022-10-16T10:54:40;101247.33;;;34.81;16.65
72794;BME280;63436;26.334;50.194;2022-10-16T10:57:06;101240.16;;;35.98;15.65
72794;BME280;63436;26.334;50.194;2022-10-16T10:59:37;101245.10;;;33.87;17.90
72794;BME280;63436;26.334;50.194;2022-10-16T11:01:56;101243.24;;;34.90;17.40
72794;BME280;63436;26.334;50.194;2022-10-16T11:04:35;101244.26;;;34.65;17.81
72794;BME280;63436;26.334;50.194;2022-10-16T11:06:46;101244.03;;;34.19;18.00
72794;BME280;63436;26.334;50.194;2022-10-16T11:09:12;101243.11;;;35.00;17.38
72794;BME280;63436;26.334;50.194;2022-10-16T11:11:36;101239.92;;;34.96;17.54
72794;BME280;63436;26.334;50.194;2022-10-16T11:14:00;101237.93;;;36.09;16.72
72794;BME280;63436;26.334;50.194;2022-10-16T11:16:27;101240.04;;;37.05;15.86
72794;BME280;63436;26.334;50.194;2022-10-16T11:18:54;101242.42;;;35.83;17.23
72794;BME280;63436;26.334;50.194;2022-10-16T11:21:14;101248.80;;;34.40;18.14
72794;BME280;63436;26.334;50.194;2022-10-16T11:23:44;101247.11;;;34.81;17.22
72794;BME280;63436;26.334;50.194;2022-10-16T11:26:09;101249.84;;;34.15;17.26
72794;BME280;63436;26.334;50.194;2022-10-16T11:28:33;101245.11;;;35.04;16.68
72794;BME280;63436;26.334;50.194;2022-10-16T11:30:58;101246.57;;;35.68;15.84
72794;BME280;63436;26.334;50.194;2022-10-16T11:33:27;101252.89;;;33.84;17.23
72794;BME280;63436;26.334;50.194;2022-10-16T11:35:51;101247.91;;;35.14;16.96
72794;BME280;63436;26.334;50.194;2022-10-16T11:38:23;101250.24;;;34.18;17.43
72794;BME280;63436;26.334;50.194;2022-10-16T11:40:39;101248.77;;;34.46;17.56
72794;BME280;63436;26.334;50.194;2022-10-16T11:43:10;101249.88;;;34.46;17.12
72794;BME280;63436;26.334;50.194;2022-10-16T11:45:34;101246.29;;;34.72;16.87
72794;BME280;63436;26.334;50.194;2022-10-16T11:48:00;101243.13;;;35.53;16.33
72794;BME280;63436;26.334;50.194;2022-10-16T11:50:24;101245.13;;;35.50;15.33
72794;BME280;63436;26.334;50.194;2022-10-16T11:52:50;101249.51;;;35.26;15.93
72794;BME280;63436;26.334;50.194;2022-10-16T11:55:15;101250.94;;;34.80;16.34
72794;BME280;63436;26.334;50.194;2022-10-16T11:57:40;101254.92;;;34.75;16.32
72794;BME280;63436;26.334;50.194;2022-10-16T12:00:05;101254.94;;;33.44;17.14
72794;BME280;63436;26.334;50.194;2022-10-16T12:02:33;101255.55;;;34.29;16.59
72794;BME280;63436;26.334;50.194;2022-10-16T12:04:59;101256.71;;;34.69;16.56
72794;BME280;63436;26.334;50.194;2022-10-16T12:07:21;101257.94;;;34.40;17.18
72794;BME280;63436;26.334;50.194;2022-10-16T12:09:42;101258.61;;;33.44;18.36
72794;BME280;63436;26.334;50.194;2022-10-16T12:14:36;101259.72;;;34.73;17.68
72794;BME280;63436;26.334;50.194;2022-10-16T12:16:58;101261.49;;;34.53;18.02
72794;BME280;63436;26.334;50.194;2022-10-16T12:19:24;101260.61;;;35.05;17.45
72794;BME280;63436;26.334;50.194;2022-10-16T12:21:48;101258.29;;;36.06;17.07
72794;BME280;63436;26.334;50.194;2022-10-16T12:24:31;101262.01;;;34.94;17.23
72794;BME280;63436;26.334;50.194;2022-10-16T12:26:39;101261.17;;;34.64;17.70
72794;BME280;63436;26.334;50.194;2022-10-16T12:29:14;101262.17;;;35.51;17.47
72794;BME280;63436;26.334;50.194;2022-10-16T12:31:36;101263.37;;;34.25;17.87
72794;BME280;63436;26.334;50.194;2022-10-16T12:33:59;101262.38;;;34.89;17.71
72794;BME280;63436;26.334;50.194;2022-10-16T12:36:27;101266.64;;;35.22;17.42
72794;BME280;63436;26.334;50.194;2022-10-16T12:38:49;101265.09;;;34.83;17.29
72794;BME280;63436;26.334;50.194;2022-10-16T12:41:12;101264.18;;;35.35;17.49
72794;BME280;63436;26.334;50.194;2022-10-16T12:43:39;101265.55;;;34.78;17.59